Time;durP1;ratioP1;P1;durP2;ratioP2;P2;SDS_P1;SDS_P2;PMS_P1;PMS_P2;Temp;Humidity;BMP_temperature;BMP_pressure;BME280_temperature;BME280_humidity;BME280_pressure;Samples;Min_cycle;Max_cycle;Signal;HPM_P1;HPM_P2
2022/07/26 00:01:30;;;;;;;;;;;;;;;;;;5139962;27;20325;-83
2022/07/26 00:03:56;;;;;;;;;;;;;;;;;;5135177;27;19916;-84
2022/07/26 00:06:22;;;;;;;;;;;;;;;;;;5120456;27;20249;-84
2022/07/26 00:08:47;;;;;;;;;;;;;;;;;;5139756;27;19916;-85
2022/07/26 00:11:12;;;;;;;;;;;;;;;;;;5137961;27;19955;-85
2022/07/26 00:13:38;;;;;;;;;;;;;;;;;;5139445;27;19919;-84
2022/07/26 00:16:03;;;;;;;;;;;;;;;;;;5139616;27;19948;-85
2022/07/26 00:18:29;;;;;;;;;;;;;;;;;;5139694;27;20240;-84
2022/07/26 00:20:54;;;;;;;;;;;;;;;;;;5138212;27;20325;-85
2022/07/26 00:23:19;;;;;;;;;;;;;;;;;;5142849;27;19920;-84
2022/07/26 00:25:45;;;;;;;;;;;;;;;;;;5139245;27;20449;-84
2022/07/26 00:28:10;;;;;;;;;;;;;;;;;;5137624;27;19916;-85
2022/07/26 00:30:35;;;;;;;;;;;;;;;;;;5139272;27;19963;-85
2022/07/26 00:33:01;;;;;;;;;;;;;;;;;;5137144;27;19923;-83
2022/07/26 00:35:26;;;;;;;;;;;;;;;;;;5139052;27;20010;-84
2022/07/26 00:37:51;;;;;;;;;;;;;;;;;;5138999;27;19911;-84
2022/07/26 00:40:16;;;;;;;;;;;;;;;;;;5137957;27;19969;-84
2022/07/26 00:42:42;;;;;;;;;;;;;;;;;;5138755;27;20262;-85
2022/07/26 00:45:08;;;;;;;;;;;;;;;;;;5142460;27;19918;-84
2022/07/26 00:47:33;;;;;;;;;;;;;;;;;;5139341;27;20242;-84
2022/07/26 00:49:58;;;;;;;;;;;;;;;;;;5138982;27;19918;-85
2022/07/26 00:52:24;;;;;;;;;;;;;;;;;;5138735;27;19916;-84
2022/07/26 00:54:49;;;;;;;;;;;;;;;;;;5137087;27;19958;-84
2022/07/26 00:57:14;;;;;;;;;;;;;;;;;;5137452;27;19931;-84
2022/07/26 00:59:40;;;;;;;;;;;;;;;;;;5137312;27;20347;-84
2022/07/26 01:02:06;;;;;;;;;;;;;;;;;;5119985;27;19923;-84
2022/07/26 01:04:32;;;;;;;;;;;;;;;;;;5143182;27;19915;-83
2022/07/26 01:06:57;;;;;;;;;;;;;;;;;;5138383;27;19922;-85
2022/07/26 01:09:22;;;;;;;;;;;;;;;;;;5138372;27;20338;-84
2022/07/26 01:11:48;;;;;;;;;;;;;;;;;;5137883;27;19916;-85
2022/07/26 01:14:13;;;;;;;;;;;;;;;;;;5138953;27;20290;-84
2022/07/26 01:16:39;;;;;;;;;;;;;;;;;;5137814;27;19923;-85
2022/07/26 01:19:04;;;;;;;;;;;;;;;;;;5137855;27;19915;-86
2022/07/26 01:21:30;;;;;;;;;;;;;;;;;;5138163;27;19916;-85
2022/07/26 01:23:55;;;;;;;;;;;;;;;;;;5136980;27;19949;-85
2022/07/26 01:26:20;;;;;;;;;;;;;;;;;;5148127;27;20345;-85
2022/07/26 01:28:48;;;;;;;;;;;;;;;;;;5136896;27;19945;-85
2022/07/26 01:31:13;;;;;;;;;;;;;;;;;;5137720;27;20276;-86
2022/07/26 01:33:38;;;;;;;;;;;;;;;;;;5136227;27;19925;-85
2022/07/26 01:36:04;;;;;;;;;;;;;;;;;;5138115;27;19964;-85
2022/07/26 01:38:29;;;;;;;;;;;;;;;;;;5119226;27;19944;-85
2022/07/26 01:40:55;;;;;;;;;;;;;;;;;;5136479;27;20006;-85
2022/07/26 01:43:20;;;;;;;;;;;;;;;;;;5137317;27;19922;-84
2022/07/26 01:45:45;;;;;;;;;;;;;;;;;;5141683;27;19914;-85
2022/07/26 01:48:11;;;;;;;;;;;;;;;;;;5140009;27;19977;-85
2022/07/26 01:50:36;;;;;;;;;;;;;;;;;;5137549;27;20325;-85
2022/07/26 01:53:01;;;;;;;;;;;;;;;;;;5137623;27;19923;-86
2022/07/26 01:55:27;;;;;;;;;;;;;;;;;;5137208;27;19919;-85
2022/07/26 01:57:52;;;;;;;;;;;;;;;;;;5137391;27;19915;-86
2022/07/26 02:00:17;;;;;;;;;;;;;;;;;;5136099;27;19965;-86
2022/07/26 02:02:43;;;;;;;;;;;;;;;;;;5135660;27;19919;-86
2022/07/26 02:05:08;;;;;;;;;;;;;;;;;;5136969;27;19923;-85
2022/07/26 02:07:38;;;;;;;;;;;;;;;;;;5144114;27;19919;-85
2022/07/26 02:10:03;;;;;;;;;;;;;;;;;;5138238;27;20229;-85
2022/07/26 02:12:29;;;;;;;;;;;;;;;;;;5137074;27;19922;-85
2022/07/26 02:14:54;;;;;;;;;;;;;;;;;;5135299;27;19922;-86
2022/07/26 02:17:19;;;;;;;;;;;;;;;;;;5137005;27;19915;-87
2022/07/26 02:19:45;;;;;;;;;;;;;;;;;;5137006;27;19932;-86
2022/07/26 02:22:10;;;;;;;;;;;;;;;;;;5135656;27;19921;-85
2022/07/26 02:24:36;;;;;;;;;;;;;;;;;;5137019;27;20337;-86
2022/07/26 02:27:01;;;;;;;;;;;;;;;;;;5136306;27;19984;-85
2022/07/26 02:29:26;;;;;;;;;;;;;;;;;;5143911;27;19926;-85
2022/07/26 02:31:52;;;;;;;;;;;;;;;;;;5118838;27;19944;-85
2022/07/26 02:34:17;;;;;;;;;;;;;;;;;;5136810;27;19994;-86
2022/07/26 02:36:43;;;;;;;;;;;;;;;;;;5136702;27;19922;-86
2022/07/26 02:39:08;;;;;;;;;;;;;;;;;;5135683;27;19915;-86
2022/07/26 02:41:33;;;;;;;;;;;;;;;;;;5136874;27;19919;-86
2022/07/26 02:43:59;;;;;;;;;;;;;;;;;;5136187;27;19915;-86
2022/07/26 02:46:24;;;;;;;;;;;;;;;;;;5136431;27;19965;-86
2022/07/26 02:48:49;;;;;;;;;;;;;;;;;;5139094;27;19926;-85
2022/07/26 02:51:15;;;;;;;;;;;;;;;;;;5136681;27;19947;-86
2022/07/26 02:53:40;;;;;;;;;;;;;;;;;;5134886;27;19963;-85
2022/07/26 02:56:05;;;;;;;;;;;;;;;;;;5136208;27;19919;-86
2022/07/26 02:58:31;;;;;;;;;;;;;;;;;;5134845;27;19919;-86
2022/07/26 03:00:56;;;;;;;;;;;;;;;;;;5136174;27;19954;-86
2022/07/26 03:03:21;;;;;;;;;;;;;;;;;;5138265;27;20306;-85
2022/07/26 03:05:47;;;;;;;;;;;;;;;;;;5136208;27;19915;-86
2022/07/26 03:08:12;;;;;;;;;;;;;;;;;;5135837;27;20010;-84
2022/07/26 03:10:38;;;;;;;;;;;;;;;;;;5143804;27;20053;-86
2022/07/26 03:13:03;;;;;;;;;;;;;;;;;;5122642;27;19919;-85
2022/07/26 03:15:28;;;;;;;;;;;;;;;;;;5136036;27;19922;-85
2022/07/26 03:17:54;;;;;;;;;;;;;;;;;;5135760;27;19915;-85
2022/07/26 03:20:19;;;;;;;;;;;;;;;;;;5135566;27;19930;-85
2022/07/26 03:22:44;;;;;;;;;;;;;;;;;;5135801;27;19922;-85
2022/07/26 03:25:10;;;;;;;;;;;;;;;;;;5136078;27;19984;-85
2022/07/26 03:27:35;;;;;;;;;;;;;;;;;;5135791;27;19922;-86
2022/07/26 03:30:00;;;;;;;;;;;;;;;;;;5134658;27;19977;-85
2022/07/26 03:32:26;;;;;;;;;;;;;;;;;;5140264;27;19964;-85
2022/07/26 03:34:51;;;;;;;;;;;;;;;;;;5136429;27;20236;-86
2022/07/26 03:37:17;;;;;;;;;;;;;;;;;;5134840;27;19938;-85
2022/07/26 03:39:42;;;;;;;;;;;;;;;;;;5134997;27;20002;-85
2022/07/26 03:42:07;;;;;;;;;;;;;;;;;;5135654;27;20245;-85
2022/07/26 03:44:33;;;;;;;;;;;;;;;;;;5135399;27;19920;-85
2022/07/26 03:46:58;;;;;;;;;;;;;;;;;;5135316;27;20011;-84
2022/07/26 03:49:23;;;;;;;;;;;;;;;;;;5134128;27;19915;-84
2022/07/26 03:51:49;;;;;;;;;;;;;;;;;;5138153;27;19919;-83
2022/07/26 03:54:14;;;;;;;;;;;;;;;;;;5135337;27;19927;-83
2022/07/26 03:56:39;;;;;;;;;;;;;;;;;;5134053;27;19915;-82
2022/07/26 03:59:06;;;;;;;;;;;;;;;;;;5134429;28;19953;-83
2022/07/26 04:01:31;;;;;;;;;;;;;;;;;;5135501;27;19916;-83
2022/07/26 04:03:57;;;;;;;;;;;;;;;;;;5134251;27;19916;-83
2022/07/26 04:06:22;;;;;;;;;;;;;;;;;;5135661;27;19915;-85
2022/07/26 04:08:47;;;;;;;;;;;;;;;;;;5134085;27;20294;-83
2022/07/26 04:11:12;;;;;;;;;;;;;;;;;;5135195;27;20374;-83
2022/07/26 04:13:38;;;;;;;;;;;;;;;;;;5136249;27;20072;-83
2022/07/26 04:16:03;;;;;;;;;;;;;;;;;;5134193;27;20056;-83
2022/07/26 04:18:29;;;;;;;;;;;;;;;;;;5134428;27;19915;-83
2022/07/26 04:20:54;;;;;;;;;;;;;;;;;;5135271;27;20014;-84
2022/07/26 04:23:19;;;;;;;;;;;;;;;;;;5135162;27;19964;-85
2022/07/26 04:25:45;;;;;;;;;;;;;;;;;;5134920;27;19915;-84
2022/07/26 04:28:10;;;;;;;;;;;;;;;;;;5135663;27;19919;-86
2022/07/26 04:30:35;;;;;;;;;;;;;;;;;;5135224;27;19915;-85
2022/07/26 04:33:01;;;;;;;;;;;;;;;;;;5134235;27;19955;-85
2022/07/26 04:35:26;;;;;;;;;;;;;;;;;;5135835;27;19915;-85
2022/07/26 04:37:51;;;;;;;;;;;;;;;;;;5135127;27;19915;-85
2022/07/26 04:40:17;;;;;;;;;;;;;;;;;;5134631;27;20249;-85
2022/07/26 04:42:42;;;;;;;;;;;;;;;;;;5133817;27;19915;-84
2022/07/26 04:45:09;;;;;;;;;;;;;;;;;;5134668;27;19922;-84
2022/07/26 04:47:35;;;;;;;;;;;;;;;;;;5134849;27;20324;-84
2022/07/26 04:50:00;;;;;;;;;;;;;;;;;;5133902;27;19922;-86
2022/07/26 04:52:25;;;;;;;;;;;;;;;;;;5136993;27;20049;-86
2022/07/26 04:54:51;;;;;;;;;;;;;;;;;;5142931;27;19919;-86
2022/07/26 04:57:16;;;;;;;;;;;;;;;;;;5140240;27;20298;-85
2022/07/26 04:59:41;;;;;;;;;;;;;;;;;;5138663;27;19922;-85
2022/07/26 05:02:06;;;;;;;;;;;;;;;;;;5138509;27;19920;-86
2022/07/26 05:04:32;;;;;;;;;;;;;;;;;;5136963;27;19916;-86
2022/07/26 05:07:01;;;;;;;;;;;;;;;;;;5138494;27;19972;-85
2022/07/26 05:09:29;;;;;;;;;;;;;;;;;;5120027;27;20308;-85
2022/07/26 05:11:55;;;;;;;;;;;;;;;;;;5137186;27;19922;-87
2022/07/26 05:14:20;;;;;;;;;;;;;;;;;;5138566;27;19998;-84
2022/07/26 05:16:45;;;;;;;;;;;;;;;;;;5149078;27;20397;-86
2022/07/26 05:19:11;;;;;;;;;;;;;;;;;;5140764;27;20001;-85
2022/07/26 05:21:36;;;;;;;;;;;;;;;;;;5142398;27;19942;-85
2022/07/26 05:24:02;;;;;;;;;;;;;;;;;;5144268;27;19916;-86
2022/07/26 05:26:27;;;;;;;;;;;;;;;;;;5145786;27;19916;-84
2022/07/26 05:28:53;;;;;;;;;;;;;;;;;;5147249;27;20292;-86
2022/07/26 05:31:18;;;;;;;;;;;;;;;;;;5147390;27;19915;-82
2022/07/26 05:33:43;;;;;;;;;;;;;;;;;;5147416;27;19920;-85
2022/07/26 05:36:09;;;;;;;;;;;;;;;;;;5144042;27;19946;-84
2022/07/26 05:38:34;;;;;;;;;;;;;;;;;;5149433;27;19923;-82
2022/07/26 05:40:59;;;;;;;;;;;;;;;;;;5144374;27;19961;-83
2022/07/26 05:43:26;;;;;;;;;;;;;;;;;;5145763;27;19922;-84
2022/07/26 05:45:51;;;;;;;;;;;;;;;;;;5146892;27;19922;-84
2022/07/26 05:48:17;;;;;;;;;;;;;;;;;;5142860;27;19912;-82
2022/07/26 05:50:42;;;;;;;;;;;;;;;;;;5139515;27;19922;-83
2022/07/26 05:53:09;;;;;;;;;;;;;;;;;;5141755;27;19972;-83
2022/07/26 05:55:35;;;;;;;;;;;;;;;;;;5143338;27;19969;-83
2022/07/26 05:58:00;;;;;;;;;;;;;;;;;;5146073;27;19899;-84
2022/07/26 06:00:25;;;;;;;;;;;;;;;;;;5145406;27;19919;-83
2022/07/26 06:02:51;;;;;;;;;;;;;;;;;;5136697;27;20289;-80
2022/07/26 06:05:16;;;;;;;;;;;;;;;;;;5136692;27;20002;-81
2022/07/26 06:07:41;;;;;;;;;;;;;;;;;;5138018;27;20324;-84
2022/07/26 06:10:07;;;;;;;;;;;;;;;;;;5137907;27;19916;-83
2022/07/26 06:12:32;;;;;;;;;;;;;;;;;;5136551;27;19912;-81
2022/07/26 06:14:57;;;;;;;;;;;;;;;;;;5136518;27;20252;-82
2022/07/26 06:17:23;;;;;;;;;;;;;;;;;;5137612;27;19915;-82
2022/07/26 06:19:48;;;;;;;;;;;;;;;;;;5143408;27;19971;-82
2022/07/26 06:22:13;;;;;;;;;;;;;;;;;;5140918;27;19916;-84
2022/07/26 06:24:39;;;;;;;;;;;;;;;;;;5137499;27;19921;-83
2022/07/26 06:27:04;;;;;;;;;;;;;;;;;;5138503;27;19911;-82
2022/07/26 06:29:29;;;;;;;;;;;;;;;;;;5137645;27;19938;-82
2022/07/26 06:31:55;;;;;;;;;;;;;;;;;;5136487;27;19968;-83
2022/07/26 06:34:23;;;;;;;;;;;;;;;;;;5138127;27;19993;-83
2022/07/26 06:36:48;;;;;;;;;;;;;;;;;;5138696;27;19916;-81
2022/07/26 06:39:13;;;;;;;;;;;;;;;;;;5136837;27;19911;-82
2022/07/26 06:41:39;;;;;;;;;;;;;;;;;;5145637;27;20225;-83
2022/07/26 06:44:04;;;;;;;;;;;;;;;;;;5136780;27;19916;-82
2022/07/26 06:46:29;;;;;;;;;;;;;;;;;;5118177;27;19955;-81
2022/07/26 06:48:55;;;;;;;;;;;;;;;;;;5136947;27;19915;-81
2022/07/26 06:51:21;;;;;;;;;;;;;;;;;;5140605;27;19915;-81
2022/07/26 06:53:46;;;;;;;;;;;;;;;;;;5139763;27;20249;-82
2022/07/26 06:56:13;;;;;;;;;;;;;;;;;;5141914;27;19920;-82
2022/07/26 06:58:39;;;;;;;;;;;;;;;;;;5137324;27;19920;-82
2022/07/26 07:01:04;;;;;;;;;;;;;;;;;;5136884;27;19922;-81
2022/07/26 07:03:30;;;;;;;;;;;;;;;;;;5140936;27;19915;-81
2022/07/26 07:05:55;;;;;;;;;;;;;;;;;;5137301;27;19915;-81
2022/07/26 07:08:23;;;;;;;;;;;;;;;;;;5136683;27;20314;-81
2022/07/26 07:10:48;;;;;;;;;;;;;;;;;;5136727;27;19937;-81
2022/07/26 07:13:13;;;;;;;;;;;;;;;;;;5135970;27;20983;-82
2022/07/26 07:15:39;;;;;;;;;;;;;;;;;;5136573;27;20030;-82
2022/07/26 07:18:04;;;;;;;;;;;;;;;;;;5136173;27;19915;-82
2022/07/26 07:20:29;;;;;;;;;;;;;;;;;;5136413;27;19916;-81
2022/07/26 07:22:55;;;;;;;;;;;;;;;;;;5143103;27;20007;-81
2022/07/26 07:25:20;;;;;;;;;;;;;;;;;;5136257;27;19916;-81
2022/07/26 07:27:45;;;;;;;;;;;;;;;;;;5136275;27;19945;-80
2022/07/26 07:30:11;;;;;;;;;;;;;;;;;;5136098;27;19915;-81
2022/07/26 07:32:36;;;;;;;;;;;;;;;;;;5136272;27;19916;-81
2022/07/26 07:35:02;;;;;;;;;;;;;;;;;;5134406;27;20351;-81
2022/07/26 07:37:27;;;;;;;;;;;;;;;;;;5134671;27;19919;-82
2022/07/26 07:39:52;;;;;;;;;;;;;;;;;;5135744;27;19916;-82
2022/07/26 07:42:18;;;;;;;;;;;;;;;;;;5138821;27;19907;-81
2022/07/26 07:44:43;;;;;;;;;;;;;;;;;;5140628;27;19915;-81
2022/07/26 07:47:09;;;;;;;;;;;;;;;;;;5136208;27;20264;-82
2022/07/26 07:49:34;;;;;;;;;;;;;;;;;;5135461;27;19915;-82
2022/07/26 07:52:01;;;;;;;;;;;;;;;;;;5134599;27;20006;-82
2022/07/26 07:54:26;;;;;;;;;;;;;;;;;;5134299;27;19920;-81
2022/07/26 07:56:53;;;;;;;;;;;;;;;;;;5135467;27;19916;-81
2022/07/26 07:59:19;;;;;;;;;;;;;;;;;;5135582;27;20010;-82
2022/07/26 08:01:44;;;;;;;;;;;;;;;;;;5135898;27;19978;-81
2022/07/26 08:04:09;;;;;;;;;;;;;;;;;;5142993;27;19919;-81
2022/07/26 08:06:35;;;;;;;;;;;;;;;;;;5135254;27;19955;-81
2022/07/26 08:09:00;;;;;;;;;;;;;;;;;;5135693;27;19915;-82
2022/07/26 08:11:26;;;;;;;;;;;;;;;;;;5135464;27;19958;-82
2022/07/26 08:13:51;;;;;;;;;;;;;;;;;;5135603;27;20239;-82
2022/07/26 08:16:16;;;;;;;;;;;;;;;;;;5135515;27;19919;-81
2022/07/26 08:18:42;;;;;;;;;;;;;;;;;;5135229;27;19919;-81
2022/07/26 08:21:07;;;;;;;;;;;;;;;;;;5135639;27;19916;-81
2022/07/26 08:23:32;;;;;;;;;;;;;;;;;;5134735;27;19916;-82
2022/07/26 08:25:58;;;;;;;;;;;;;;;;;;5143796;27;20014;-83
2022/07/26 08:31:10;;;;;;;;;;;;;;;;;;5139227;27;19922;-82
2022/07/26 08:33:35;;;;;;;;;;;;;;;;;;5139222;27;19911;-82
2022/07/26 08:36:00;;;;;;;;;;;;;;;;;;5139597;27;20342;-82
2022/07/26 08:38:26;;;;;;;;;;;;;;;;;;5139655;27;20313;-82
2022/07/26 08:40:51;;;;;;;;;;;;;;;;;;5138083;27;19941;-82
2022/07/26 08:43:16;;;;;;;;;;;;;;;;;;5139192;27;19980;-82
2022/07/26 08:45:44;;;;;;;;;;;;;;;;;;5149129;27;19955;-82
2022/07/26 08:48:09;;;;;;;;;;;;;;;;;;5139076;27;19915;-83
2022/07/26 08:50:35;;;;;;;;;;;;;;;;;;5141035;27;20002;-81
2022/07/26 08:53:00;;;;;;;;;;;;;;;;;;5121234;27;19922;-81
2022/07/26 08:55:26;;;;;;;;;;;;;;;;;;5139891;27;19927;-81
2022/07/26 08:57:51;;;;;;;;;;;;;;;;;;5140157;27;19916;-82
2022/07/26 09:00:20;;;;;;;;;;;;;;;;;;5141652;27;19977;-82
2022/07/26 09:02:46;;;;;;;;;;;;;;;;;;5140721;27;19922;-81
2022/07/26 09:05:11;;;;;;;;;;;;;;;;;;5140282;27;19915;-81
2022/07/26 09:07:38;;;;;;;;;;;;;;;;;;5143267;27;19915;-81
2022/07/26 09:10:04;;;;;;;;;;;;;;;;;;5142818;27;19949;-82
2022/07/26 09:12:29;;;;;;;;;;;;;;;;;;5140702;27;20006;-82
2022/07/26 09:14:55;;;;;;;;;;;;;;;;;;5137117;27;19916;-81
2022/07/26 09:17:21;;;;;;;;;;;;;;;;;;5138653;27;20317;-82
2022/07/26 09:20:01;;;;;;;;;;;;;;;;;;5139084;27;20288;-85
2022/07/26 09:22:26;;;;;;;;;;;;;;;;;;5136920;27;19922;-85
2022/07/26 09:24:51;;;;;;;;;;;;;;;;;;5138292;27;19916;-86
2022/07/26 09:27:17;;;;;;;;;;;;;;;;;;5138136;27;20266;-85
2022/07/26 09:29:42;;;;;;;;;;;;;;;;;;5138063;27;19915;-87
2022/07/26 09:32:17;;;;;;;;;;;;;;;;;;5136924;27;19916;-88
2022/07/26 09:34:47;;;;;;;;;;;;;;;;;;5138341;27;19968;-84
2022/07/26 09:37:22;;;;;;;;;;;;;;;;;;5137912;27;19923;-86
2022/07/26 09:39:54;;;;;;;;;;;;;;;;;;5139593;27;19941;-85
2022/07/26 09:42:20;;;;;;;;;;;;;;;;;;5136352;27;19916;-86
2022/07/26 09:44:46;;;;;;;;;;;;;;;;;;5119578;27;19922;-85
2022/07/26 09:47:11;;;;;;;;;;;;;;;;;;5136750;27;20248;-86
2022/07/26 09:49:36;;;;;;;;;;;;;;;;;;5138765;27;19979;-84
2022/07/26 09:52:02;;;;;;;;;;;;;;;;;;5138869;27;20019;-85
2022/07/26 09:54:28;;;;;;;;;;;;;;;;;;5136219;27;20374;-86
2022/07/26 09:56:53;;;;;;;;;;;;;;;;;;5137550;27;19915;-88
2022/07/26 09:59:19;;;;;;;;;;;;;;;;;;5136988;27;19919;-88
2022/07/26 10:01:44;;;;;;;;;;;;;;;;;;5137017;27;19922;-86
2022/07/26 10:04:10;;;;;;;;;;;;;;;;;;5135855;27;19915;-87
2022/07/26 10:06:35;;;;;;;;;;;;;;;;;;5137292;27;19916;-84
2022/07/26 10:09:00;;;;;;;;;;;;;;;;;;5143203;27;19965;-86
2022/07/26 10:11:27;;;;;;;;;;;;;;;;;;5136231;27;19934;-86
2022/07/26 10:13:53;;;;;;;;;;;;;;;;;;5135418;27;20382;-84
2022/07/26 10:16:28;;;;;;;;;;;;;;;;;;5137090;27;20075;-84
2022/07/26 10:18:54;;;;;;;;;;;;;;;;;;5135903;27;19945;-88
2022/07/26 10:21:20;;;;;;;;;;;;;;;;;;5118394;27;19915;-84
2022/07/26 10:23:50;;;;;;;;;;;;;;;;;;5136899;27;19915;-83
2022/07/26 10:26:30;;;;;;;;;;;;;;;;;;5136898;27;20309;-88
2022/07/26 10:29:14;;;;;;;;;;;;;;;;;;5140450;27;20329;-88
2022/07/26 10:31:39;;;;;;;;;;;;;;;;;;5137789;27;19915;-86
2022/07/26 10:34:05;;;;;;;;;;;;;;;;;;5135321;27;19915;-86
2022/07/26 10:36:31;;;;;;;;;;;;;;;;;;5136538;27;20260;-85
2022/07/26 10:39:01;;;;;;;;;;;;;;;;;;5135072;27;19915;-88
2022/07/26 10:41:34;;;;;;;;;;;;;;;;;;5137061;27;20244;-88
2022/07/26 10:44:34;;;;;;;;;;;;;;;;;;5117876;27;19922;-85
2022/07/26 10:47:06;;;;;;;;;;;;;;;;;;5053165;28;19990;-88
2022/07/26 10:49:52;;;;;;;;;;;;;;;;;;5124394;27;19943;-86
2022/07/26 10:52:18;;;;;;;;;;;;;;;;;;5119029;27;19926;-87
2022/07/26 10:54:59;;;;;;;;;;;;;;;;;;5134726;27;19923;-89
2022/07/26 10:57:34;;;;;;;;;;;;;;;;;;5134711;27;19916;-87
2022/07/26 11:00:00;;;;;;;;;;;;;;;;;;5136221;27;19911;-86
2022/07/26 11:02:27;;;;;;;;;;;;;;;;;;5136428;27;19995;-87
2022/07/26 11:05:11;;;;;;;;;;;;;;;;;;5135872;27;19912;-85
2022/07/26 11:07:46;;;;;;;;;;;;;;;;;;5136325;27;19922;-87
2022/07/26 11:10:11;;;;;;;;;;;;;;;;;;5135055;27;20005;-84
2022/07/26 11:12:37;;;;;;;;;;;;;;;;;;5141142;27;19977;-88
2022/07/26 11:15:12;;;;;;;;;;;;;;;;;;5135784;27;20297;-85
2022/07/26 11:17:38;;;;;;;;;;;;;;;;;;5136236;27;20688;-85
2022/07/26 11:20:03;;;;;;;;;;;;;;;;;;5117703;27;20063;-87
2022/07/26 11:22:32;;;;;;;;;;;;;;;;;;5133159;27;20408;-88
2022/07/26 11:24:57;;;;;;;;;;;;;;;;;;5135680;27;19915;-84
2022/07/26 11:27:23;;;;;;;;;;;;;;;;;;5135209;27;19916;-85
2022/07/26 11:29:48;;;;;;;;;;;;;;;;;;5134015;27;19939;-84
2022/07/26 11:32:15;;;;;;;;;;;;;;;;;;5136097;27;19916;-83
2022/07/26 11:34:41;;;;;;;;;;;;;;;;;;5137010;27;20256;-86
2022/07/26 11:37:06;;;;;;;;;;;;;;;;;;5134075;27;19915;-84
2022/07/26 11:39:32;;;;;;;;;;;;;;;;;;5133232;27;19929;-85
2022/07/26 11:41:58;;;;;;;;;;;;;;;;;;5133825;27;19916;-86
2022/07/26 11:44:23;;;;;;;;;;;;;;;;;;5132142;27;20339;-85
2022/07/26 11:46:57;;;;;;;;;;;;;;;;;;5132903;27;19919;-85
2022/07/26 11:49:27;;;;;;;;;;;;;;;;;;5132897;27;19915;-86
2022/07/26 11:51:52;;;;;;;;;;;;;;;;;;5135358;27;19915;-83
2022/07/26 11:54:18;;;;;;;;;;;;;;;;;;5136995;27;19991;-85
2022/07/26 11:56:53;;;;;;;;;;;;;;;;;;5136329;27;19915;-87
2022/07/26 11:59:18;;;;;;;;;;;;;;;;;;5135604;27;20457;-86
2022/07/26 12:01:44;;;;;;;;;;;;;;;;;;5137621;27;19916;-87
2022/07/26 12:04:16;;;;;;;;;;;;;;;;;;5139840;27;19915;-86
2022/07/26 12:06:41;;;;;;;;;;;;;;;;;;5138282;27;19922;-87
2022/07/26 12:09:07;;;;;;;;;;;;;;;;;;5138155;27;19915;-87
2022/07/26 12:11:36;;;;;;;;;;;;;;;;;;5139480;27;19916;-84
2022/07/26 12:14:01;;;;;;;;;;;;;;;;;;5140058;27;19936;-85
2022/07/26 12:16:39;;;;;;;;;;;;;;;;;;5145044;27;19960;-84
2022/07/26 12:19:05;;;;;;;;;;;;;;;;;;5139244;27;20367;-85
2022/07/26 12:21:43;;;;;;;;;;;;;;;;;;5121007;27;19972;-87
2022/07/26 12:24:08;;;;;;;;;;;;;;;;;;5120755;27;19919;-85
2022/07/26 12:26:34;;;;;;;;;;;;;;;;;;5137810;27;20010;-84
2022/07/26 12:31:44;;;;;;;;;;;;;;;;;;5138561;27;19937;-86
2022/07/26 12:34:09;;;;;;;;;;;;;;;;;;5137887;27;19915;-87
2022/07/26 12:36:34;;;;;;;;;;;;;;;;;;5142463;27;19975;-85
2022/07/26 12:38:59;;;;;;;;;;;;;;;;;;5139086;27;20015;-84
2022/07/26 12:41:34;;;;;;;;;;;;;;;;;;5139096;27;19916;-84
2022/07/26 12:44:00;;;;;;;;;;;;;;;;;;5139783;27;20108;-88
2022/07/26 12:46:25;;;;;;;;;;;;;;;;;;5141083;27;20399;-89
2022/07/26 12:48:50;;;;;;;;;;;;;;;;;;5139444;27;19921;-86
2022/07/26 12:51:15;;;;;;;;;;;;;;;;;;5138774;27;19922;-86
2022/07/26 12:53:41;;;;;;;;;;;;;;;;;;5140127;27;20229;-87
2022/07/26 12:56:06;;;;;;;;;;;;;;;;;;5137505;27;19923;-84
2022/07/26 12:58:31;;;;;;;;;;;;;;;;;;5144688;27;19923;-86
2022/07/26 13:00:57;;;;;;;;;;;;;;;;;;5138758;27;19923;-85
2022/07/26 13:03:22;;;;;;;;;;;;;;;;;;5142083;27;19916;-84
2022/07/26 13:05:47;;;;;;;;;;;;;;;;;;5142208;27;20256;-85
2022/07/26 13:08:13;;;;;;;;;;;;;;;;;;5138680;27;19915;-86
2022/07/26 13:10:39;;;;;;;;;;;;;;;;;;5137380;27;19998;-87
2022/07/26 13:13:05;;;;;;;;;;;;;;;;;;5135754;27;19988;-86
2022/07/26 13:15:30;;;;;;;;;;;;;;;;;;5137425;27;20321;-87
2022/07/26 13:17:55;;;;;;;;;;;;;;;;;;5138096;27;20393;-87
2022/07/26 13:20:21;;;;;;;;;;;;;;;;;;5140821;27;19919;-85
2022/07/26 13:22:46;;;;;;;;;;;;;;;;;;5136823;27;19915;-83
2022/07/26 13:25:11;;;;;;;;;;;;;;;;;;5137001;27;19915;-84
2022/07/26 13:27:37;;;;;;;;;;;;;;;;;;5136954;27;20264;-86
2022/07/26 13:30:02;;;;;;;;;;;;;;;;;;5135740;28;20217;-87
2022/07/26 13:32:27;;;;;;;;;;;;;;;;;;5136898;27;19916;-83
2022/07/26 13:34:53;;;;;;;;;;;;;;;;;;5137257;27;20055;-86
2022/07/26 13:37:18;;;;;;;;;;;;;;;;;;5137704;27;19974;-86
2022/07/26 13:39:43;;;;;;;;;;;;;;;;;;5141040;27;19915;-84
2022/07/26 13:42:10;;;;;;;;;;;;;;;;;;5140010;27;19919;-86
2022/07/26 13:44:35;;;;;;;;;;;;;;;;;;5136443;27;20320;-84
2022/07/26 13:47:01;;;;;;;;;;;;;;;;;;5136601;27;19965;-86
2022/07/26 13:49:26;;;;;;;;;;;;;;;;;;5136288;27;19964;-87
2022/07/26 13:51:57;;;;;;;;;;;;;;;;;;5136254;27;19915;-86
2022/07/26 13:54:24;;;;;;;;;;;;;;;;;;5046279;27;2517471;-86
2022/07/26 13:56:49;;;;;;;;;;;;;;;;;;5137666;27;20275;-86
2022/07/26 13:59:14;;;;;;;;;;;;;;;;;;5136295;27;19916;-86
2022/07/26 14:01:40;;;;;;;;;;;;;;;;;;5141882;27;19920;-86
2022/07/26 14:04:06;;;;;;;;;;;;;;;;;;5139874;27;19980;-85
2022/07/26 14:06:31;;;;;;;;;;;;;;;;;;5137365;27;19999;-84
2022/07/26 14:08:57;;;;;;;;;;;;;;;;;;5137314;27;19951;-85
2022/07/26 14:11:22;;;;;;;;;;;;;;;;;;5136665;27;19912;-86
2022/07/26 14:13:47;;;;;;;;;;;;;;;;;;5137404;27;19915;-86
2022/07/26 14:16:13;;;;;;;;;;;;;;;;;;5137844;27;19964;-85
2022/07/26 14:18:38;;;;;;;;;;;;;;;;;;5137714;27;20021;-87
2022/07/26 14:21:03;;;;;;;;;;;;;;;;;;5138190;27;19916;-85
2022/07/26 14:23:29;;;;;;;;;;;;;;;;;;5146619;27;19982;-86
2022/07/26 14:25:54;;;;;;;;;;;;;;;;;;5141267;27;19915;-87
2022/07/26 14:28:19;;;;;;;;;;;;;;;;;;5137713;27;20337;-85
2022/07/26 14:30:44;;;;;;;;;;;;;;;;;;5137110;27;20320;-85
2022/07/26 14:33:10;;;;;;;;;;;;;;;;;;5135624;27;19964;-85
2022/07/26 14:35:35;;;;;;;;;;;;;;;;;;5136672;27;19972;-84
2022/07/26 14:38:00;;;;;;;;;;;;;;;;;;5137054;27;19911;-86
2022/07/26 14:40:26;;;;;;;;;;;;;;;;;;5136923;27;19915;-86
2022/07/26 14:42:51;;;;;;;;;;;;;;;;;;5137899;27;20286;-85
2022/07/26 14:45:16;;;;;;;;;;;;;;;;;;5145481;27;20337;-83
2022/07/26 14:47:42;;;;;;;;;;;;;;;;;;5136948;27;19915;-83
2022/07/26 14:50:07;;;;;;;;;;;;;;;;;;5135224;27;19917;-83
2022/07/26 14:52:35;;;;;;;;;;;;;;;;;;5135600;27;19915;-88
2022/07/26 14:55:00;;;;;;;;;;;;;;;;;;5136911;27;20312;-86
2022/07/26 14:57:26;;;;;;;;;;;;;;;;;;5135169;27;19915;-85
2022/07/26 14:59:51;;;;;;;;;;;;;;;;;;5136832;27;19915;-84
2022/07/26 15:02:16;;;;;;;;;;;;;;;;;;5136711;27;19922;-86
2022/07/26 15:04:43;;;;;;;;;;;;;;;;;;5141919;27;20237;-83
2022/07/26 15:07:08;;;;;;;;;;;;;;;;;;5138165;27;19915;-84
2022/07/26 15:09:33;;;;;;;;;;;;;;;;;;5136703;27;20382;-85
2022/07/26 15:11:59;;;;;;;;;;;;;;;;;;5136466;27;20354;-84
2022/07/26 15:14:24;;;;;;;;;;;;;;;;;;5134888;27;20245;-83
2022/07/26 15:16:49;;;;;;;;;;;;;;;;;;5136391;27;19915;-84
2022/07/26 15:19:14;;;;;;;;;;;;;;;;;;5135910;27;20012;-87
2022/07/26 15:21:40;;;;;;;;;;;;;;;;;;5135930;27;20006;-85
2022/07/26 15:24:06;;;;;;;;;;;;;;;;;;5135171;27;20006;-84
2022/07/26 15:26:31;;;;;;;;;;;;;;;;;;5141024;27;20275;-86
2022/07/26 15:28:56;;;;;;;;;;;;;;;;;;5137903;27;19919;-86
2022/07/26 15:31:23;;;;;;;;;;;;;;;;;;5135614;27;19915;-86
2022/07/26 15:33:49;;;;;;;;;;;;;;;;;;5137083;27;20006;-84
2022/07/26 15:36:15;;;;;;;;;;;;;;;;;;5117202;27;20034;-84
2022/07/26 15:38:44;;;;;;;;;;;;;;;;;;5134480;27;19915;-84
2022/07/26 15:41:09;;;;;;;;;;;;;;;;;;5135058;27;19972;-85
2022/07/26 15:43:34;;;;;;;;;;;;;;;;;;5135872;27;19915;-84
2022/07/26 15:46:00;;;;;;;;;;;;;;;;;;5135876;27;20244;-86
2022/07/26 15:48:25;;;;;;;;;;;;;;;;;;5127003;27;20064;-84
2022/07/26 15:50:50;;;;;;;;;;;;;;;;;;5136202;27;19915;-84
2022/07/26 15:53:16;;;;;;;;;;;;;;;;;;5135872;27;19919;-85
2022/07/26 15:55:41;;;;;;;;;;;;;;;;;;5135702;27;19926;-83
2022/07/26 15:58:06;;;;;;;;;;;;;;;;;;5135768;27;19973;-82
2022/07/26 16:00:31;;;;;;;;;;;;;;;;;;5135747;27;19915;-83
2022/07/26 16:02:57;;;;;;;;;;;;;;;;;;5135363;27;19916;-84
2022/07/26 16:05:22;;;;;;;;;;;;;;;;;;5134225;27;19915;-83
2022/07/26 16:07:47;;;;;;;;;;;;;;;;;;5137493;27;19964;-84
2022/07/26 16:10:13;;;;;;;;;;;;;;;;;;5145315;27;19926;-85
2022/07/26 16:12:39;;;;;;;;;;;;;;;;;;5135061;27;19930;-85
2022/07/26 16:15:05;;;;;;;;;;;;;;;;;;5135616;27;19915;-83
2022/07/26 16:17:30;;;;;;;;;;;;;;;;;;5135317;27;20383;-83
2022/07/26 16:19:55;;;;;;;;;;;;;;;;;;5135591;27;20325;-85
2022/07/26 16:22:21;;;;;;;;;;;;;;;;;;5133906;27;19923;-85
2022/07/26 16:24:46;;;;;;;;;;;;;;;;;;5135552;27;19945;-83
2022/07/26 16:27:11;;;;;;;;;;;;;;;;;;5117183;28;19923;-83
2022/07/26 16:29:36;;;;;;;;;;;;;;;;;;5137868;27;19955;-86
2022/07/26 16:32:02;;;;;;;;;;;;;;;;;;5145170;27;20249;-85
2022/07/26 16:34:28;;;;;;;;;;;;;;;;;;5135259;27;20347;-85
2022/07/26 16:36:54;;;;;;;;;;;;;;;;;;5135126;27;20252;-85
2022/07/26 16:39:19;;;;;;;;;;;;;;;;;;5134312;27;19923;-83
2022/07/26 16:41:44;;;;;;;;;;;;;;;;;;5135420;27;19916;-83
2022/07/26 16:44:10;;;;;;;;;;;;;;;;;;5135479;27;19916;-85